createdAt,value
2022-09-12T00:04:57.200Z,84.47
2022-09-12T00:09:57.240Z,85.08
2022-09-12T00:14:57.050Z,84.57
2022-09-12T00:19:57.006Z,84.77
2022-09-12T00:24:57.118Z,85.96
2022-09-12T00:29:57.045Z,85.19
2022-09-12T00:34:56.981Z,86.76
2022-09-12T00:39:56.875Z,86.41
2022-09-12T00:44:56.646Z,87.60
2022-09-12T00:49:59.690Z,86.76
2022-09-12T00:54:56.570Z,88.56
2022-09-12T01:00:04.968Z,85.80
2022-09-12T01:08:14.551Z,85.94
2022-09-12T01:13:14.197Z,86.33
2022-09-12T01:18:14.892Z,87.89
2022-09-12T01:23:14.186Z,87.73
2022-09-12T01:29:32.610Z,88.13
2022-09-12T01:36:28.440Z,86.57
2022-09-12T01:41:38.435Z,86.33
2022-09-12T01:46:28.194Z,87.43
2022-09-12T01:51:28.149Z,86.57
2022-09-12T01:56:27.915Z,86.41
2022-09-12T02:01:28.114Z,88.01
2022-09-12T02:06:27.940Z,86.61
2022-09-12T02:11:27.790Z,88.58
2022-09-12T02:16:27.774Z,88.48
2022-09-12T02:21:27.868Z,88.07
2022-09-12T02:26:30.725Z,88.28
2022-09-12T02:31:27.712Z,88.21
2022-09-12T02:36:27.535Z,88.21
2022-09-12T02:41:27.425Z,90.14
2022-09-12T02:46:27.725Z,88.73
2022-09-12T02:51:27.285Z,88.26
2022-09-12T02:56:27.450Z,88.26
2022-09-12T03:01:27.266Z,88.56
2022-09-12T03:06:27.170Z,89.07
2022-09-12T03:11:27.099Z,88.52
2022-09-12T03:16:27.119Z,88.56
2022-09-12T03:21:26.769Z,87.97
2022-09-12T03:28:02.800Z,86.35
2022-09-12T03:34:28.380Z,86.49
2022-09-12T03:39:28.115Z,88.01
2022-09-12T03:44:28.125Z,89.83
2022-09-12T03:49:28.210Z,88.06
2022-09-12T03:56:13.410Z,88.87
2022-09-12T04:01:13.462Z,88.76
2022-09-12T04:06:13.370Z,89.92
2022-09-12T04:11:13.205Z,90.03
2022-09-12T04:16:13.313Z,89.72
2022-09-12T04:21:21.231Z,89.42
2022-09-12T04:26:13.010Z,89.52
2022-09-12T04:31:13.976Z,88.26
2022-09-12T04:36:12.886Z,88.71
2022-09-12T04:41:12.916Z,88.81
2022-09-12T04:46:15.967Z,88.67
2022-09-12T04:51:12.645Z,89.66
2022-09-12T04:56:12.897Z,88.12
2022-09-12T05:30:09.522Z,88.60
2022-09-12T05:56:29.176Z,87.81
2022-09-12T06:01:29.070Z,87.06
2022-09-12T06:06:28.800Z,85.90
2022-09-12T06:13:09.107Z,85.76
2022-09-12T06:18:08.939Z,85.01
2022-09-12T06:23:08.593Z,84.91
2022-09-12T06:28:08.615Z,86.21
2022-09-12T06:33:08.455Z,84.41
2022-09-12T06:38:08.751Z,85.11
2022-09-12T06:43:08.470Z,85.21
2022-09-12T06:48:08.511Z,84.36
2022-09-12T06:53:09.061Z,83.31
2022-09-12T06:58:08.581Z,81.65
2022-09-12T07:03:11.859Z,84.16
2022-09-12T07:08:07.960Z,84.36
2022-09-12T07:13:07.962Z,83.27
2022-09-12T07:18:08.079Z,81.48
2022-09-12T08:06:22.813Z,74.29
2022-09-12T08:22:10.191Z,74.55
2022-09-12T08:31:08.824Z,73.38
2022-09-12T08:37:59.656Z,72.13
2022-09-12T08:45:32.335Z,71.47
2022-09-12T08:51:50.851Z,70.09
2022-09-12T08:56:59.266Z,70.03
2022-09-12T09:01:50.545Z,71.30
2022-09-12T09:08:15.762Z,72.17
2022-09-12T09:13:14.157Z,73.30
2022-09-12T09:18:14.031Z,75.38
2022-09-12T09:24:58.082Z,73.78
2022-09-12T09:29:58.259Z,75.42
2022-09-12T09:34:57.860Z,77.39
2022-09-12T09:39:57.749Z,75.99
2022-09-12T09:44:57.802Z,75.95
2022-09-12T09:49:57.664Z,74.81
2022-09-12T09:54:57.548Z,74.37
2022-09-12T09:59:57.780Z,75.04
2022-09-12T10:05:04.890Z,71.23
2022-09-12T10:09:57.488Z,76.05
2022-09-12T10:15:01.407Z,74.81
2022-09-12T10:20:17.320Z,74.68
2022-09-12T10:24:58.167Z,73.23
2022-09-12T10:29:57.041Z,68.79
2022-09-12T10:34:57.042Z,69.09
2022-09-12T10:39:57.391Z,70.12
2022-09-12T10:44:56.952Z,66.89
2022-09-12T10:49:56.905Z,66.19
2022-09-12T10:54:56.810Z,63.59
2022-09-12T10:59:56.697Z,65.52
2022-09-12T11:04:56.640Z,66.19
2022-09-12T11:09:56.505Z,63.83
2022-09-12T11:14:59.493Z,57.87
2022-09-12T11:19:56.542Z,61.57
2022-09-12T11:24:57.140Z,60.00
2022-09-12T11:29:56.243Z,60.00
2022-09-12T11:34:56.358Z,53.86
2022-09-12T11:39:56.267Z,52.34
2022-09-12T11:44:56.151Z,56.29
2022-09-12T11:49:56.141Z,54.53
2022-09-12T11:54:56.175Z,53.64
2022-09-12T11:59:55.920Z,52.97
2022-09-12T12:04:55.826Z,50.95
2022-09-12T12:09:55.928Z,52.32
2022-09-12T12:14:58.943Z,52.02
2022-09-12T12:19:55.633Z,51.25
2022-09-12T12:24:56.273Z,52.67
2022-09-12T12:29:55.450Z,50.25
2022-09-12T12:34:55.654Z,49.33
2022-09-12T12:39:55.490Z,50.05
2022-09-12T12:44:55.476Z,50.63
2022-09-12T12:50:02.783Z,51.28
2022-09-12T12:55:02.643Z,50.25
2022-09-12T12:59:55.291Z,50.43
2022-09-12T13:04:55.091Z,48.71
2022-09-12T13:09:54.982Z,53.06
2022-09-12T13:14:57.960Z,47.44
2022-09-12T13:20:16.852Z,49.46
2022-09-12T13:24:56.053Z,48.61
2022-09-12T13:29:54.675Z,48.99
2022-09-12T13:34:54.799Z,49.51
2022-09-12T13:39:54.760Z,48.32
2022-09-12T13:44:55.170Z,48.74
2022-09-12T13:49:54.569Z,49.11
2022-09-12T13:54:54.413Z,49.66
2022-09-12T14:00:02.143Z,49.04
2022-09-12T14:05:01.756Z,47.63
2022-09-12T14:10:02.058Z,48.22
2022-09-12T14:14:57.108Z,49.76
2022-09-12T14:19:54.167Z,51.28
2022-09-12T14:24:53.961Z,50.88
2022-09-12T14:29:54.195Z,51.42
2022-09-12T14:45:28.878Z,48.61
2022-09-12T14:50:28.859Z,48.71
2022-09-12T14:55:28.564Z,49.01
2022-09-12T15:00:28.599Z,49.83
2022-09-12T15:05:28.563Z,51.72
2022-09-12T15:10:28.479Z,50.43
2022-09-12T15:15:28.307Z,49.23
2022-09-12T15:20:28.225Z,50.43
2022-09-12T15:25:28.292Z,50.25
2022-09-12T15:30:28.070Z,49.48
2022-09-12T15:35:31.306Z,53.36
2022-09-12T15:40:27.928Z,50.10
2022-09-12T15:45:27.936Z,48.58
2022-09-12T15:50:27.908Z,50.45
2022-09-12T15:55:35.706Z,47.96
2022-09-12T16:00:27.684Z,47.61
2022-09-12T16:05:27.743Z,48.93
2022-09-12T16:10:27.532Z,50.62
2022-09-12T16:15:27.541Z,48.55
2022-09-12T16:20:27.373Z,47.98
2022-09-12T16:25:27.351Z,49.98
2022-09-12T16:30:27.259Z,50.77
2022-09-12T16:35:30.239Z,52.49
2022-09-12T16:40:27.168Z,54.94
2022-09-12T16:45:27.215Z,56.37
2022-09-12T16:50:26.999Z,60.88
2022-09-12T16:55:34.737Z,66.42
2022-09-12T17:00:26.970Z,70.09
2022-09-12T17:05:27.129Z,72.17
2022-09-12T17:10:26.779Z,73.55
2022-09-12T17:15:26.826Z,73.92
2022-09-12T17:20:26.638Z,74.35
2022-09-12T17:25:27.800Z,75.43
